Αρχική σελίδα
METAR-TAF:

METAR-TAF

Αεροδρόμια :

Mountain View, Καλιφόρνια, Ηνωμένες Πολιτείες Αμερικής

γεωγραφικό πλάτος: 37-24-21N, γεωγραφικό μήκος: 122-02-53W, υψόμετρο: 10 μ

Παρών καιρός

Η αναφορά έγινε 21 λεπτά πριν, στις 06:56 UTC
Ήπιος άνεμος
Θερμοκρασία 15°C
Υγρασία 88%
Πίεση 1016 hPa
Ορατότητα: 16.1 χλμ
Καθαρός ουρανός

METAR: KNUQ 220656Z 00000KT 10SM CLR 15/13 A3000 RMK AO2 SLP162 T01500133 $

Χρόνος: 00:17 (07:17 UTC)


TAF: λείπει

Μετεωρολογικές αναφορές και προγνώσεις για περισσότερα από 4000 αεροδρόμια (δελτία METAR και TAF).

Οι διαθέσιμοι σταθμοί απεικονίζονται στο χάρτη με κίτρινες και κόκκινες κουκκίδες.

Μετακινήστε το ποντίκι πάνω από τις κουκκίδες για να δείτε το όνομα του σταθμού.

Στη συνέχεια, κάντε κλικ για να δείτε τις μετεωρολογικές αναφορές και τις προγνώσεις καιρού.

Για να αλλάξετε το χάρτη: κάντε κλικ στα πράσινα κουμπιά με τον μαύρο σταυρό για να ζουμάρετε, στο πράσινο κουμπί με την παύλα για να αφαιρέσετε το ζουμ ή στα πράσινα βέλη για να αντιπαραβάλλετε χάρτες.


METAR-TAF: